KHFF/HFF METAR and TAF weather

Enter ICAO airport designator
Station Type Date Time Source
KHFF METAR 2020/01/26 00:56 UTC NOAA

KHFF 260056Z AUTO 26006KT 10SM FEW046 07/05 A2997 RMK AO2 SLP166 T00670047 $


Station Type Date Time Source
KHFF Decoded METAR 2020/01/26 00:56 UTC NOAA

Mackall U. S. Army Airfield, NC, United States (KHFF) 35-02N 079-30W
Jan 25, 2020 - 07:56 PM EST / 2020.01.26 0056 UTC
Wind: from the W (260 degrees) at 7 MPH (6 KT):0
Visibility: 10 mile(s):0
Sky conditions: mostly clear
Temperature: 44.1 F (6.7 C)
Dew Point: 40.5 F (4.7 C)
Relative Humidity: 87%
Pressure (altimeter): 29.97 in. Hg (1014 hPa)
ob: KHFF 260056Z AUTO 26006KT 10SM FEW046 07/05 A2997 RMK AO2 SLP166 T00670047
cycle: 1

Station Type Date Time Source
KHFF TAF UTC NOAA

Error!

Example: see airport list